sensor_id;sensor_type;location;lat;lon;timestamp;P1;durP1;ratioP1;P2;durP2;ratioP2
63201;SDS011;49296;48.188;11.566;2023-07-29T00:01:40;6.13;;;4.38;;
63201;SDS011;49296;48.188;11.566;2023-07-29T00:04:06;6.05;;;3.85;;
63201;SDS011;49296;48.188;11.566;2023-07-29T00:06:34;7.25;;;4.10;;
63201;SDS011;49296;48.188;11.566;2023-07-29T00:09:01;7.03;;;4.35;;
63201;SDS011;49296;48.188;11.566;2023-07-29T00:11:28;7.20;;;4.38;;
63201;SDS011;49296;48.188;11.566;2023-07-29T00:13:56;7.95;;;4.60;;
63201;SDS011;49296;48.188;11.566;2023-07-29T00:16:23;7.68;;;4.78;;
63201;SDS011;49296;48.188;11.566;2023-07-29T00:18:49;7.72;;;4.55;;
63201;SDS011;49296;48.188;11.566;2023-07-29T00:21:16;8.23;;;4.40;;
63201;SDS011;49296;48.188;11.566;2023-07-29T00:23:42;6.22;;;4.05;;
63201;SDS011;49296;48.188;11.566;2023-07-29T00:26:09;6.75;;;4.00;;
63201;SDS011;49296;48.188;11.566;2023-07-29T00:28:36;5.57;;;3.58;;
63201;SDS011;49296;48.188;11.566;2023-07-29T00:31:04;5.68;;;3.38;;
63201;SDS011;49296;48.188;11.566;2023-07-29T00:33:30;6.38;;;3.40;;
63201;SDS011;49296;48.188;11.566;2023-07-29T00:35:57;6.88;;;3.97;;
63201;SDS011;49296;48.188;11.566;2023-07-29T00:38:26;5.07;;;3.37;;
63201;SDS011;49296;48.188;11.566;2023-07-29T00:40:53;6.05;;;3.47;;
63201;SDS011;49296;48.188;11.566;2023-07-29T00:43:20;6.32;;;3.50;;
63201;SDS011;49296;48.188;11.566;2023-07-29T00:45:46;6.78;;;3.97;;
63201;SDS011;49296;48.188;11.566;2023-07-29T00:48:15;5.35;;;3.30;;
63201;SDS011;49296;48.188;11.566;2023-07-29T00:50:41;5.78;;;3.25;;
63201;SDS011;49296;48.188;11.566;2023-07-29T00:53:08;5.00;;;2.90;;
63201;SDS011;49296;48.188;11.566;2023-07-29T00:55:35;5.55;;;3.25;;
63201;SDS011;49296;48.188;11.566;2023-07-29T00:58:01;6.40;;;3.10;;
63201;SDS011;49296;48.188;11.566;2023-07-29T01:00:29;6.63;;;3.78;;
63201;SDS011;49296;48.188;11.566;2023-07-29T01:02:56;5.35;;;3.30;;
63201;SDS011;49296;48.188;11.566;2023-07-29T01:05:24;5.55;;;3.80;;
63201;SDS011;49296;48.188;11.566;2023-07-29T01:07:57;5.97;;;4.10;;
63201;SDS011;49296;48.188;11.566;2023-07-29T01:10:30;6.05;;;3.80;;
63201;SDS011;49296;48.188;11.566;2023-07-29T01:13:05;8.02;;;4.47;;
63201;SDS011;49296;48.188;11.566;2023-07-29T01:15:41;6.88;;;3.80;;
63201;SDS011;49296;48.188;11.566;2023-07-29T01:18:14;6.57;;;3.80;;
63201;SDS011;49296;48.188;11.566;2023-07-29T01:20:46;6.28;;;3.67;;
63201;SDS011;49296;48.188;11.566;2023-07-29T01:23:13;5.68;;;3.38;;
63201;SDS011;49296;48.188;11.566;2023-07-29T01:25:43;5.82;;;3.60;;
63201;SDS011;49296;48.188;11.566;2023-07-29T01:28:10;6.93;;;4.03;;
63201;SDS011;49296;48.188;11.566;2023-07-29T01:30:38;8.07;;;4.93;;
63201;SDS011;49296;48.188;11.566;2023-07-29T01:33:07;6.80;;;3.80;;
63201;SDS011;49296;48.188;11.566;2023-07-29T01:35:40;5.72;;;3.55;;
63201;SDS011;49296;48.188;11.566;2023-07-29T01:38:12;5.55;;;3.58;;
63201;SDS011;49296;48.188;11.566;2023-07-29T01:40:44;5.55;;;3.17;;
63201;SDS011;49296;48.188;11.566;2023-07-29T01:43:11;5.55;;;3.55;;
63201;SDS011;49296;48.188;11.566;2023-07-29T01:45:38;5.22;;;3.25;;
63201;SDS011;49296;48.188;11.566;2023-07-29T01:48:06;7.38;;;4.68;;
63201;SDS011;49296;48.188;11.566;2023-07-29T01:50:33;7.50;;;4.25;;
63201;SDS011;49296;48.188;11.566;2023-07-29T01:53:00;6.60;;;3.95;;
63201;SDS011;49296;48.188;11.566;2023-07-29T01:55:26;6.72;;;4.28;;
63201;SDS011;49296;48.188;11.566;2023-07-29T01:57:54;7.78;;;3.97;;
63201;SDS011;49296;48.188;11.566;2023-07-29T02:00:21;7.80;;;4.25;;
63201;SDS011;49296;48.188;11.566;2023-07-29T02:02:47;7.95;;;3.72;;
63201;SDS011;49296;48.188;11.566;2023-07-29T02:05:14;6.85;;;4.07;;
63201;SDS011;49296;48.188;11.566;2023-07-29T02:07:41;7.32;;;4.22;;
63201;SDS011;49296;48.188;11.566;2023-07-29T02:10:07;6.55;;;4.30;;
63201;SDS011;49296;48.188;11.566;2023-07-29T02:12:34;6.55;;;3.85;;
63201;SDS011;49296;48.188;11.566;2023-07-29T02:15:02;5.97;;;3.88;;
63201;SDS011;49296;48.188;11.566;2023-07-29T02:17:30;6.82;;;3.75;;
63201;SDS011;49296;48.188;11.566;2023-07-29T02:19:56;6.53;;;3.17;;
63201;SDS011;49296;48.188;11.566;2023-07-29T02:22:23;5.15;;;3.17;;
63201;SDS011;49296;48.188;11.566;2023-07-29T02:24:49;5.45;;;3.13;;
63201;SDS011;49296;48.188;11.566;2023-07-29T02:27:16;4.60;;;2.67;;
63201;SDS011;49296;48.188;11.566;2023-07-29T02:29:42;5.28;;;3.03;;
63201;SDS011;49296;48.188;11.566;2023-07-29T02:32:10;6.13;;;3.10;;
63201;SDS011;49296;48.188;11.566;2023-07-29T02:34:37;5.15;;;2.88;;
63201;SDS011;49296;48.188;11.566;2023-07-29T02:37:03;6.40;;;2.80;;
63201;SDS011;49296;48.188;11.566;2023-07-29T02:39:30;6.03;;;3.28;;
63201;SDS011;49296;48.188;11.566;2023-07-29T02:41:56;5.65;;;3.42;;
63201;SDS011;49296;48.188;11.566;2023-07-29T02:44:23;6.68;;;3.67;;
63201;SDS011;49296;48.188;11.566;2023-07-29T02:46:51;6.28;;;3.90;;
63201;SDS011;49296;48.188;11.566;2023-07-29T02:49:21;6.00;;;3.45;;
63201;SDS011;49296;48.188;11.566;2023-07-29T02:51:48;5.75;;;3.58;;
63201;SDS011;49296;48.188;11.566;2023-07-29T02:54:14;5.65;;;3.42;;
63201;SDS011;49296;48.188;11.566;2023-07-29T02:56:41;6.47;;;3.78;;
63201;SDS011;49296;48.188;11.566;2023-07-29T02:59:07;5.80;;;3.65;;
63201;SDS011;49296;48.188;11.566;2023-07-29T03:01:34;5.40;;;3.22;;
63201;SDS011;49296;48.188;11.566;2023-07-29T03:04:00;6.78;;;4.35;;
63201;SDS011;49296;48.188;11.566;2023-07-29T03:06:28;6.90;;;4.10;;
63201;SDS011;49296;48.188;11.566;2023-07-29T03:08:55;7.65;;;4.18;;
63201;SDS011;49296;48.188;11.566;2023-07-29T03:11:21;5.38;;;3.33;;
63201;SDS011;49296;48.188;11.566;2023-07-29T03:13:48;4.82;;;3.08;;
63201;SDS011;49296;48.188;11.566;2023-07-29T03:16:15;5.20;;;2.75;;
63201;SDS011;49296;48.188;11.566;2023-07-29T03:18:43;5.65;;;2.53;;
63201;SDS011;49296;48.188;11.566;2023-07-29T03:21:10;4.00;;;2.47;;
63201;SDS011;49296;48.188;11.566;2023-07-29T03:23:38;4.20;;;2.28;;
63201;SDS011;49296;48.188;11.566;2023-07-29T03:26:05;7.70;;;2.70;;
63201;SDS011;49296;48.188;11.566;2023-07-29T03:28:35;4.97;;;2.50;;
63201;SDS011;49296;48.188;11.566;2023-07-29T03:31:03;5.45;;;3.45;;
63201;SDS011;49296;48.188;11.566;2023-07-29T03:33:30;4.20;;;2.63;;
63201;SDS011;49296;48.188;11.566;2023-07-29T03:35:56;6.20;;;2.42;;
63201;SDS011;49296;48.188;11.566;2023-07-29T03:38:23;6.03;;;2.55;;
63201;SDS011;49296;48.188;11.566;2023-07-29T03:40:51;4.38;;;2.35;;
63201;SDS011;49296;48.188;11.566;2023-07-29T03:43:18;4.53;;;2.80;;
63201;SDS011;49296;48.188;11.566;2023-07-29T03:45:45;4.63;;;2.50;;
63201;SDS011;49296;48.188;11.566;2023-07-29T03:48:11;4.28;;;2.45;;
63201;SDS011;49296;48.188;11.566;2023-07-29T03:50:38;4.50;;;2.60;;
63201;SDS011;49296;48.188;11.566;2023-07-29T03:53:05;4.60;;;2.40;;
63201;SDS011;49296;48.188;11.566;2023-07-29T03:55:31;4.05;;;2.45;;
63201;SDS011;49296;48.188;11.566;2023-07-29T03:58:00;5.28;;;2.60;;
63201;SDS011;49296;48.188;11.566;2023-07-29T04:00:26;4.15;;;2.28;;
63201;SDS011;49296;48.188;11.566;2023-07-29T04:02:53;4.15;;;2.53;;
63201;SDS011;49296;48.188;11.566;2023-07-29T04:05:20;4.70;;;2.22;;
63201;SDS011;49296;48.188;11.566;2023-07-29T04:07:47;4.03;;;2.00;;
63201;SDS011;49296;48.188;11.566;2023-07-29T04:10:13;4.30;;;2.10;;
63201;SDS011;49296;48.188;11.566;2023-07-29T04:12:40;4.25;;;2.03;;
63201;SDS011;49296;48.188;11.566;2023-07-29T04:15:08;3.85;;;2.03;;
63201;SDS011;49296;48.188;11.566;2023-07-29T04:17:35;4.20;;;2.20;;
63201;SDS011;49296;48.188;11.566;2023-07-29T04:20:02;3.47;;;1.83;;
63201;SDS011;49296;48.188;11.566;2023-07-29T04:22:28;4.10;;;1.98;;
63201;SDS011;49296;48.188;11.566;2023-07-29T04:24:55;4.05;;;2.10;;
63201;SDS011;49296;48.188;11.566;2023-07-29T04:27:22;4.55;;;2.05;;
63201;SDS011;49296;48.188;11.566;2023-07-29T04:29:48;4.40;;;2.13;;
63201;SDS011;49296;48.188;11.566;2023-07-29T04:32:16;3.97;;;1.90;;
63201;SDS011;49296;48.188;11.566;2023-07-29T04:34:43;4.30;;;2.10;;
63201;SDS011;49296;48.188;11.566;2023-07-29T04:37:09;3.80;;;2.10;;
63201;SDS011;49296;48.188;11.566;2023-07-29T04:39:36;3.58;;;1.88;;
63201;SDS011;49296;48.188;11.566;2023-07-29T04:42:02;4.43;;;2.25;;
63201;SDS011;49296;48.188;11.566;2023-07-29T04:44:29;3.58;;;1.75;;
63201;SDS011;49296;48.188;11.566;2023-07-29T04:46:56;4.03;;;2.00;;
63201;SDS011;49296;48.188;11.566;2023-07-29T04:49:24;3.88;;;2.10;;
63201;SDS011;49296;48.188;11.566;2023-07-29T04:51:50;4.60;;;2.00;;
63201;SDS011;49296;48.188;11.566;2023-07-29T04:54:17;3.70;;;2.13;;
63201;SDS011;49296;48.188;11.566;2023-07-29T04:56:45;3.55;;;1.73;;
63201;SDS011;49296;48.188;11.566;2023-07-29T04:59:12;4.22;;;2.05;;
63201;SDS011;49296;48.188;11.566;2023-07-29T05:01:39;4.53;;;2.28;;
63201;SDS011;49296;48.188;11.566;2023-07-29T05:04:07;3.90;;;2.10;;
63201;SDS011;49296;48.188;11.566;2023-07-29T05:06:35;4.10;;;2.03;;
63201;SDS011;49296;48.188;11.566;2023-07-29T05:09:12;4.68;;;2.25;;
63201;SDS011;49296;48.188;11.566;2023-07-29T05:11:39;3.60;;;1.80;;
63201;SDS011;49296;48.188;11.566;2023-07-29T05:14:05;3.60;;;1.90;;
63201;SDS011;49296;48.188;11.566;2023-07-29T05:16:33;3.38;;;1.77;;
63201;SDS011;49296;48.188;11.566;2023-07-29T05:19:00;3.15;;;1.63;;
63201;SDS011;49296;48.188;11.566;2023-07-29T05:21:27;3.38;;;1.90;;
63201;SDS011;49296;48.188;11.566;2023-07-29T05:23:54;3.55;;;1.80;;
63201;SDS011;49296;48.188;11.566;2023-07-29T05:26:21;4.65;;;2.00;;
63201;SDS011;49296;48.188;11.566;2023-07-29T05:28:48;3.20;;;1.70;;
63201;SDS011;49296;48.188;11.566;2023-07-29T05:31:14;3.45;;;1.75;;
63201;SDS011;49296;48.188;11.566;2023-07-29T05:33:41;3.33;;;1.50;;
63201;SDS011;49296;48.188;11.566;2023-07-29T05:36:07;4.25;;;1.80;;
63201;SDS011;49296;48.188;11.566;2023-07-29T05:38:34;4.30;;;1.92;;
63201;SDS011;49296;48.188;11.566;2023-07-29T05:41:02;3.97;;;2.20;;
63201;SDS011;49296;48.188;11.566;2023-07-29T05:43:28;4.38;;;2.38;;
63201;SDS011;49296;48.188;11.566;2023-07-29T05:45:55;7.38;;;2.58;;
63201;SDS011;49296;48.188;11.566;2023-07-29T05:48:21;6.03;;;2.85;;
63201;SDS011;49296;48.188;11.566;2023-07-29T05:50:48;5.03;;;2.55;;
63201;SDS011;49296;48.188;11.566;2023-07-29T05:53:15;4.78;;;2.80;;
63201;SDS011;49296;48.188;11.566;2023-07-29T05:55:41;5.60;;;2.70;;
63201;SDS011;49296;48.188;11.566;2023-07-29T05:58:09;3.92;;;2.13;;
63201;SDS011;49296;48.188;11.566;2023-07-29T06:00:36;4.07;;;2.15;;
63201;SDS011;49296;48.188;11.566;2023-07-29T06:03:03;4.40;;;2.17;;
63201;SDS011;49296;48.188;11.566;2023-07-29T06:05:29;3.63;;;1.88;;
63201;SDS011;49296;48.188;11.566;2023-07-29T06:07:56;2.95;;;1.58;;
63201;SDS011;49296;48.188;11.566;2023-07-29T06:10:22;3.78;;;1.65;;
63201;SDS011;49296;48.188;11.566;2023-07-29T06:12:49;3.92;;;2.08;;
63201;SDS011;49296;48.188;11.566;2023-07-29T06:15:17;3.90;;;1.92;;
63201;SDS011;49296;48.188;11.566;2023-07-29T06:17:47;3.58;;;1.88;;
63201;SDS011;49296;48.188;11.566;2023-07-29T06:20:13;3.50;;;1.70;;
63201;SDS011;49296;48.188;11.566;2023-07-29T06:22:40;3.47;;;1.67;;
63201;SDS011;49296;48.188;11.566;2023-07-29T06:25:07;3.70;;;1.60;;
63201;SDS011;49296;48.188;11.566;2023-07-29T06:27:34;2.25;;;1.30;;
63201;SDS011;49296;48.188;11.566;2023-07-29T06:30:01;3.60;;;1.58;;
63201;SDS011;49296;48.188;11.566;2023-07-29T06:32:28;3.22;;;1.95;;
63201;SDS011;49296;48.188;11.566;2023-07-29T06:34:55;4.30;;;2.45;;
63201;SDS011;49296;48.188;11.566;2023-07-29T06:37:22;5.05;;;2.17;;
63201;SDS011;49296;48.188;11.566;2023-07-29T06:39:48;4.88;;;2.40;;
63201;SDS011;49296;48.188;11.566;2023-07-29T06:42:15;3.58;;;2.05;;
63201;SDS011;49296;48.188;11.566;2023-07-29T06:44:41;4.72;;;2.20;;
63201;SDS011;49296;48.188;11.566;2023-07-29T06:47:08;5.07;;;2.40;;
63201;SDS011;49296;48.188;11.566;2023-07-29T06:49:38;4.23;;;2.43;;
63201;SDS011;49296;48.188;11.566;2023-07-29T06:52:05;5.60;;;2.60;;
63201;SDS011;49296;48.188;11.566;2023-07-29T06:54:32;3.60;;;2.00;;
63201;SDS011;49296;48.188;11.566;2023-07-29T06:56:58;3.53;;;1.98;;
63201;SDS011;49296;48.188;11.566;2023-07-29T06:59:25;3.80;;;2.00;;
63201;SDS011;49296;48.188;11.566;2023-07-29T07:01:52;3.40;;;1.75;;
63201;SDS011;49296;48.188;11.566;2023-07-29T07:04:18;3.80;;;2.13;;
63201;SDS011;49296;48.188;11.566;2023-07-29T07:06:47;3.20;;;1.70;;
63201;SDS011;49296;48.188;11.566;2023-07-29T07:09:16;4.53;;;2.38;;
63201;SDS011;49296;48.188;11.566;2023-07-29T07:11:43;4.97;;;2.35;;
63201;SDS011;49296;48.188;11.566;2023-07-29T07:14:09;5.38;;;2.65;;
63201;SDS011;49296;48.188;11.566;2023-07-29T07:16:36;4.72;;;2.67;;
63201;SDS011;49296;48.188;11.566;2023-07-29T07:19:04;5.75;;;3.00;;
63201;SDS011;49296;48.188;11.566;2023-07-29T07:21:31;5.30;;;3.10;;
63201;SDS011;49296;48.188;11.566;2023-07-29T07:23:59;4.78;;;2.72;;
63201;SDS011;49296;48.188;11.566;2023-07-29T07:26:26;5.65;;;2.90;;
63201;SDS011;49296;48.188;11.566;2023-07-29T07:28:53;4.68;;;2.55;;
63201;SDS011;49296;48.188;11.566;2023-07-29T07:31:20;4.57;;;2.63;;
63201;SDS011;49296;48.188;11.566;2023-07-29T07:33:46;9.35;;;5.00;;
63201;SDS011;49296;48.188;11.566;2023-07-29T07:36:13;13.27;;;7.88;;
63201;SDS011;49296;48.188;11.566;2023-07-29T07:38:40;7.13;;;3.55;;
63201;SDS011;49296;48.188;11.566;2023-07-29T07:41:08;6.35;;;3.58;;
63201;SDS011;49296;48.188;11.566;2023-07-29T07:43:35;8.57;;;4.47;;
63201;SDS011;49296;48.188;11.566;2023-07-29T07:46:03;6.95;;;3.88;;
63201;SDS011;49296;48.188;11.566;2023-07-29T07:48:29;5.68;;;2.80;;
63201;SDS011;49296;48.188;11.566;2023-07-29T07:50:58;5.70;;;2.67;;
63201;SDS011;49296;48.188;11.566;2023-07-29T07:53:24;11.90;;;4.38;;
63201;SDS011;49296;48.188;11.566;2023-07-29T07:55:51;5.60;;;2.67;;
63201;SDS011;49296;48.188;11.566;2023-07-29T07:58:19;5.28;;;2.70;;
63201;SDS011;49296;48.188;11.566;2023-07-29T08:00:46;4.60;;;2.63;;
63201;SDS011;49296;48.188;11.566;2023-07-29T08:03:12;4.70;;;2.50;;
63201;SDS011;49296;48.188;11.566;2023-07-29T08:05:39;5.35;;;2.80;;
63201;SDS011;49296;48.188;11.566;2023-07-29T08:08:06;4.10;;;2.80;;
63201;SDS011;49296;48.188;11.566;2023-07-29T08:10:34;5.30;;;3.00;;
63201;SDS011;49296;48.188;11.566;2023-07-29T08:13:00;5.47;;;2.70;;
63201;SDS011;49296;48.188;11.566;2023-07-29T08:15:28;5.15;;;2.60;;
63201;SDS011;49296;48.188;11.566;2023-07-29T08:17:55;4.15;;;2.63;;
63201;SDS011;49296;48.188;11.566;2023-07-29T08:20:22;4.75;;;2.70;;
63201;SDS011;49296;48.188;11.566;2023-07-29T08:22:49;5.35;;;2.92;;
63201;SDS011;49296;48.188;11.566;2023-07-29T08:25:15;5.18;;;2.83;;
63201;SDS011;49296;48.188;11.566;2023-07-29T08:27:45;5.00;;;2.63;;
63201;SDS011;49296;48.188;11.566;2023-07-29T08:30:11;5.32;;;2.95;;
63201;SDS011;49296;48.188;11.566;2023-07-29T08:32:41;5.50;;;2.90;;
63201;SDS011;49296;48.188;11.566;2023-07-29T08:35:09;4.32;;;2.72;;
63201;SDS011;49296;48.188;11.566;2023-07-29T08:37:36;5.50;;;3.28;;
63201;SDS011;49296;48.188;11.566;2023-07-29T08:40:03;5.18;;;3.00;;
63201;SDS011;49296;48.188;11.566;2023-07-29T08:42:31;3.92;;;2.38;;
63201;SDS011;49296;48.188;11.566;2023-07-29T08:44:59;5.22;;;2.67;;
63201;SDS011;49296;48.188;11.566;2023-07-29T08:47:32;4.68;;;3.08;;
63201;SDS011;49296;48.188;11.566;2023-07-29T08:50:02;5.40;;;3.17;;
63201;SDS011;49296;48.188;11.566;2023-07-29T08:52:32;7.95;;;3.75;;
63201;SDS011;49296;48.188;11.566;2023-07-29T08:55:00;4.68;;;3.20;;
63201;SDS011;49296;48.188;11.566;2023-07-29T08:57:27;4.93;;;2.97;;
63201;SDS011;49296;48.188;11.566;2023-07-29T08:59:55;5.55;;;3.20;;
63201;SDS011;49296;48.188;11.566;2023-07-29T09:02:23;5.57;;;3.83;;
63201;SDS011;49296;48.188;11.566;2023-07-29T09:04:50;5.95;;;3.40;;
63201;SDS011;49296;48.188;11.566;2023-07-29T09:07:19;6.03;;;3.42;;
63201;SDS011;49296;48.188;11.566;2023-07-29T09:09:46;7.25;;;3.53;;
63201;SDS011;49296;48.188;11.566;2023-07-29T09:12:12;6.88;;;3.47;;
63201;SDS011;49296;48.188;11.566;2023-07-29T09:14:39;4.90;;;2.72;;
63201;SDS011;49296;48.188;11.566;2023-07-29T09:17:06;4.63;;;2.90;;
63201;SDS011;49296;48.188;11.566;2023-07-29T09:19:34;5.38;;;3.30;;
63201;SDS011;49296;48.188;11.566;2023-07-29T09:22:01;4.80;;;2.90;;
63201;SDS011;49296;48.188;11.566;2023-07-29T09:24:29;4.57;;;2.78;;
63201;SDS011;49296;48.188;11.566;2023-07-29T09:26:57;5.10;;;2.80;;
63201;SDS011;49296;48.188;11.566;2023-07-29T09:29:24;4.95;;;3.30;;
63201;SDS011;49296;48.188;11.566;2023-07-29T09:34:48;5.18;;;2.90;;
63201;SDS011;49296;48.188;11.566;2023-07-29T09:37:15;4.65;;;2.80;;
63201;SDS011;49296;48.188;11.566;2023-07-29T09:39:45;5.78;;;2.88;;
63201;SDS011;49296;48.188;11.566;2023-07-29T09:42:18;5.68;;;3.00;;
63201;SDS011;49296;48.188;11.566;2023-07-29T09:44:47;4.50;;;2.75;;
63201;SDS011;49296;48.188;11.566;2023-07-29T09:47:18;5.50;;;3.40;;
63201;SDS011;49296;48.188;11.566;2023-07-29T09:49:47;4.80;;;3.60;;
63201;SDS011;49296;48.188;11.566;2023-07-29T09:52:14;5.25;;;3.38;;
63201;SDS011;49296;48.188;11.566;2023-07-29T09:54:42;4.97;;;3.33;;
63201;SDS011;49296;48.188;11.566;2023-07-29T09:57:10;5.47;;;3.70;;
63201;SDS011;49296;48.188;11.566;2023-07-29T09:59:37;5.53;;;3.67;;
63201;SDS011;49296;48.188;11.566;2023-07-29T10:02:04;5.43;;;3.40;;
63201;SDS011;49296;48.188;11.566;2023-07-29T10:04:31;6.47;;;3.00;;
63201;SDS011;49296;48.188;11.566;2023-07-29T10:06:58;4.78;;;3.28;;
63201;SDS011;49296;48.188;11.566;2023-07-29T10:09:26;4.40;;;2.95;;
63201;SDS011;49296;48.188;11.566;2023-07-29T10:11:54;5.10;;;2.90;;
63201;SDS011;49296;48.188;11.566;2023-07-29T10:14:24;5.13;;;2.90;;
63201;SDS011;49296;48.188;11.566;2023-07-29T10:16:53;5.10;;;3.08;;
63201;SDS011;49296;48.188;11.566;2023-07-29T10:19:22;4.60;;;2.97;;
63201;SDS011;49296;48.188;11.566;2023-07-29T10:21:49;4.78;;;2.70;;
63201;SDS011;49296;48.188;11.566;2023-07-29T10:24:17;4.55;;;2.67;;
63201;SDS011;49296;48.188;11.566;2023-07-29T10:26:47;4.70;;;3.08;;
63201;SDS011;49296;48.188;11.566;2023-07-29T10:29:16;4.97;;;2.97;;
63201;SDS011;49296;48.188;11.566;2023-07-29T10:31:47;4.85;;;3.13;;
63201;SDS011;49296;48.188;11.566;2023-07-29T10:34:16;4.72;;;2.80;;
63201;SDS011;49296;48.188;11.566;2023-07-29T10:36:43;4.13;;;2.65;;
63201;SDS011;49296;48.188;11.566;2023-07-29T10:39:11;5.18;;;3.08;;
63201;SDS011;49296;48.188;11.566;2023-07-29T10:41:54;4.00;;;2.60;;
63201;SDS011;49296;48.188;11.566;2023-07-29T10:47:18;3.50;;;2.35;;
63201;SDS011;49296;48.188;11.566;2023-07-29T10:49:46;4.70;;;2.70;;
63201;SDS011;49296;48.188;11.566;2023-07-29T10:52:15;5.65;;;3.10;;
63201;SDS011;49296;48.188;11.566;2023-07-29T10:54:54;4.97;;;3.07;;
63201;SDS011;49296;48.188;11.566;2023-07-29T10:57:30;4.38;;;2.78;;
63201;SDS011;49296;48.188;11.566;2023-07-29T10:59:57;5.22;;;2.83;;
63201;SDS011;49296;48.188;11.566;2023-07-29T11:02:29;5.22;;;3.17;;
63201;SDS011;49296;48.188;11.566;2023-07-29T11:04:57;5.75;;;3.10;;
63201;SDS011;49296;48.188;11.566;2023-07-29T11:07:25;4.78;;;3.08;;
63201;SDS011;49296;48.188;11.566;2023-07-29T11:09:56;5.00;;;3.33;;
63201;SDS011;49296;48.188;11.566;2023-07-29T11:12:34;4.78;;;2.28;;
63201;SDS011;49296;48.188;11.566;2023-07-29T11:15:03;2.58;;;1.30;;
63201;SDS011;49296;48.188;11.566;2023-07-29T11:17:32;3.20;;;1.83;;
63201;SDS011;49296;48.188;11.566;2023-07-29T11:20:00;2.90;;;1.48;;
63201;SDS011;49296;48.188;11.566;2023-07-29T11:22:28;3.05;;;1.85;;
63201;SDS011;49296;48.188;11.566;2023-07-29T11:24:56;3.70;;;1.83;;
63201;SDS011;49296;48.188;11.566;2023-07-29T11:27:25;4.40;;;1.93;;
63201;SDS011;49296;48.188;11.566;2023-07-29T11:32:21;2.97;;;1.50;;
63201;SDS011;49296;48.188;11.566;2023-07-29T11:34:49;3.42;;;1.75;;
63201;SDS011;49296;48.188;11.566;2023-07-29T11:37:16;3.85;;;2.08;;
63201;SDS011;49296;48.188;11.566;2023-07-29T11:39:43;4.75;;;2.33;;
63201;SDS011;49296;48.188;11.566;2023-07-29T11:42:10;3.58;;;2.30;;
63201;SDS011;49296;48.188;11.566;2023-07-29T11:44:37;4.07;;;2.20;;
63201;SDS011;49296;48.188;11.566;2023-07-29T11:47:05;3.35;;;1.88;;
63201;SDS011;49296;48.188;11.566;2023-07-29T11:49:32;3.53;;;2.20;;
63201;SDS011;49296;48.188;11.566;2023-07-29T11:52:01;3.28;;;2.25;;
63201;SDS011;49296;48.188;11.566;2023-07-29T11:54:29;3.55;;;1.90;;
63201;SDS011;49296;48.188;11.566;2023-07-29T11:56:56;3.42;;;2.13;;
63201;SDS011;49296;48.188;11.566;2023-07-29T11:59:22;3.25;;;2.05;;
63201;SDS011;49296;48.188;11.566;2023-07-29T12:01:49;3.70;;;2.00;;
63201;SDS011;49296;48.188;11.566;2023-07-29T12:04:16;4.93;;;2.50;;
63201;SDS011;49296;48.188;11.566;2023-07-29T12:06:43;4.40;;;2.17;;
63201;SDS011;49296;48.188;11.566;2023-07-29T12:09:11;3.60;;;2.10;;
63201;SDS011;49296;48.188;11.566;2023-07-29T12:11:38;4.38;;;2.25;;
63201;SDS011;49296;48.188;11.566;2023-07-29T12:14:06;5.03;;;2.05;;
63201;SDS011;49296;48.188;11.566;2023-07-29T12:16:39;4.15;;;2.92;;
63201;SDS011;49296;48.188;11.566;2023-07-29T12:19:06;3.95;;;2.28;;
63201;SDS011;49296;48.188;11.566;2023-07-29T12:21:33;4.22;;;2.28;;
63201;SDS011;49296;48.188;11.566;2023-07-29T12:24:00;3.90;;;2.47;;
63201;SDS011;49296;48.188;11.566;2023-07-29T12:26:29;3.47;;;2.20;;
63201;SDS011;49296;48.188;11.566;2023-07-29T12:28:56;4.53;;;2.83;;
63201;SDS011;49296;48.188;11.566;2023-07-29T12:31:28;4.40;;;2.22;;
63201;SDS011;49296;48.188;11.566;2023-07-29T12:33:57;4.78;;;2.50;;
63201;SDS011;49296;48.188;11.566;2023-07-29T12:36:27;4.10;;;2.72;;
63201;SDS011;49296;48.188;11.566;2023-07-29T12:39:05;4.10;;;2.70;;
63201;SDS011;49296;48.188;11.566;2023-07-29T12:41:33;4.30;;;2.55;;
63201;SDS011;49296;48.188;11.566;2023-07-29T12:44:00;4.18;;;2.67;;
63201;SDS011;49296;48.188;11.566;2023-07-29T12:46:29;5.97;;;3.15;;
63201;SDS011;49296;48.188;11.566;2023-07-29T12:48:55;5.75;;;3.00;;
63201;SDS011;49296;48.188;11.566;2023-07-29T12:51:22;4.93;;;3.20;;
63201;SDS011;49296;48.188;11.566;2023-07-29T12:53:48;7.35;;;4.22;;
63201;SDS011;49296;48.188;11.566;2023-07-29T12:56:15;7.25;;;3.80;;
63201;SDS011;49296;48.188;11.566;2023-07-29T12:58:43;5.35;;;2.47;;
63201;SDS011;49296;48.188;11.566;2023-07-29T13:01:09;5.03;;;2.20;;
63201;SDS011;49296;48.188;11.566;2023-07-29T13:03:38;6.82;;;2.50;;
63201;SDS011;49296;48.188;11.566;2023-07-29T13:06:05;4.75;;;2.30;;
63201;SDS011;49296;48.188;11.566;2023-07-29T13:08:31;4.28;;;2.30;;
63201;SDS011;49296;48.188;11.566;2023-07-29T13:10:59;4.32;;;2.22;;
63201;SDS011;49296;48.188;11.566;2023-07-29T13:13:26;4.40;;;2.25;;
63201;SDS011;49296;48.188;11.566;2023-07-29T13:15:54;4.32;;;2.05;;
63201;SDS011;49296;48.188;11.566;2023-07-29T13:18:21;5.15;;;2.58;;
63201;SDS011;49296;48.188;11.566;2023-07-29T13:20:47;4.78;;;2.92;;
63201;SDS011;49296;48.188;11.566;2023-07-29T13:23:14;5.10;;;3.08;;
63201;SDS011;49296;48.188;11.566;2023-07-29T13:25:41;7.65;;;4.15;;
63201;SDS011;49296;48.188;11.566;2023-07-29T13:28:08;7.10;;;3.50;;
63201;SDS011;49296;48.188;11.566;2023-07-29T13:30:34;6.00;;;3.30;;
63201;SDS011;49296;48.188;11.566;2023-07-29T13:33:02;8.98;;;5.82;;
63201;SDS011;49296;48.188;11.566;2023-07-29T13:35:30;8.70;;;5.57;;
63201;SDS011;49296;48.188;11.566;2023-07-29T13:37:56;9.05;;;5.45;;
63201;SDS011;49296;48.188;11.566;2023-07-29T13:40:23;8.15;;;5.55;;
63201;SDS011;49296;48.188;11.566;2023-07-29T13:42:49;7.05;;;5.72;;
63201;SDS011;49296;48.188;11.566;2023-07-29T13:45:17;5.68;;;4.38;;
63201;SDS011;49296;48.188;11.566;2023-07-29T13:47:49;10.55;;;4.70;;
63201;SDS011;49296;48.188;11.566;2023-07-29T13:50:17;7.75;;;4.15;;
63201;SDS011;49296;48.188;11.566;2023-07-29T13:52:44;7.25;;;4.45;;
63201;SDS011;49296;48.188;11.566;2023-07-29T13:55:11;6.35;;;4.38;;
63201;SDS011;49296;48.188;11.566;2023-07-29T13:57:38;5.18;;;3.30;;
63201;SDS011;49296;48.188;11.566;2023-07-29T14:00:05;5.20;;;3.47;;
63201;SDS011;49296;48.188;11.566;2023-07-29T14:02:33;5.72;;;3.30;;
63201;SDS011;49296;48.188;11.566;2023-07-29T14:04:59;5.95;;;3.40;;
63201;SDS011;49296;48.188;11.566;2023-07-29T14:07:27;6.82;;;4.07;;
63201;SDS011;49296;48.188;11.566;2023-07-29T14:09:54;5.45;;;3.45;;
63201;SDS011;49296;48.188;11.566;2023-07-29T14:12:20;5.90;;;3.75;;
63201;SDS011;49296;48.188;11.566;2023-07-29T14:14:47;5.97;;;3.72;;
63201;SDS011;49296;48.188;11.566;2023-07-29T14:17:13;5.95;;;3.72;;
63201;SDS011;49296;48.188;11.566;2023-07-29T14:19:40;4.97;;;3.13;;
63201;SDS011;49296;48.188;11.566;2023-07-29T14:22:06;6.30;;;3.67;;
63201;SDS011;49296;48.188;11.566;2023-07-29T14:24:34;5.55;;;3.53;;
63201;SDS011;49296;48.188;11.566;2023-07-29T14:27:01;5.85;;;3.25;;
63201;SDS011;49296;48.188;11.566;2023-07-29T14:29:28;5.10;;;3.08;;
63201;SDS011;49296;48.188;11.566;2023-07-29T14:31:54;5.88;;;3.40;;
63201;SDS011;49296;48.188;11.566;2023-07-29T14:34:21;5.63;;;3.15;;
63201;SDS011;49296;48.188;11.566;2023-07-29T14:36:47;5.10;;;3.38;;
63201;SDS011;49296;48.188;11.566;2023-07-29T14:39:14;6.07;;;4.18;;
63201;SDS011;49296;48.188;11.566;2023-07-29T14:41:42;5.95;;;3.88;;
63201;SDS011;49296;48.188;11.566;2023-07-29T14:44:08;6.93;;;4.07;;